sensor_id;sensor_type;location;lat;lon;timestamp;P1;durP1;ratioP1;P2;durP2;ratioP2
1811;SDS011;904;47.814;11.134;2023-01-23T00:00:39;34.15;;;16.65;;
1811;SDS011;904;47.814;11.134;2023-01-23T00:03:07;29.27;;;17.20;;
1811;SDS011;904;47.814;11.134;2023-01-23T00:05:35;26.52;;;14.57;;
1811;SDS011;904;47.814;11.134;2023-01-23T00:08:02;27.08;;;15.93;;
1811;SDS011;904;47.814;11.134;2023-01-23T00:10:30;22.90;;;13.70;;
1811;SDS011;904;47.814;11.134;2023-01-23T00:12:58;31.35;;;14.93;;
1811;SDS011;904;47.814;11.134;2023-01-23T00:15:25;31.77;;;15.20;;
1811;SDS011;904;47.814;11.134;2023-01-23T00:17:52;29.90;;;13.77;;
1811;SDS011;904;47.814;11.134;2023-01-23T00:20:19;26.73;;;14.63;;
1811;SDS011;904;47.814;11.134;2023-01-23T00:22:46;28.98;;;13.57;;
1811;SDS011;904;47.814;11.134;2023-01-23T00:25:14;28.45;;;15.45;;
1811;SDS011;904;47.814;11.134;2023-01-23T00:27:42;20.55;;;10.95;;
1811;SDS011;904;47.814;11.134;2023-01-23T00:30:10;26.35;;;14.60;;
1811;SDS011;904;47.814;11.134;2023-01-23T00:32:38;23.85;;;12.70;;
1811;SDS011;904;47.814;11.134;2023-01-23T00:35:05;27.83;;;13.70;;
1811;SDS011;904;47.814;11.134;2023-01-23T00:37:33;34.13;;;15.18;;
1811;SDS011;904;47.814;11.134;2023-01-23T00:40:00;24.10;;;13.65;;
1811;SDS011;904;47.814;11.134;2023-01-23T00:42:28;23.25;;;14.18;;
1811;SDS011;904;47.814;11.134;2023-01-23T00:44:57;22.88;;;13.63;;
1811;SDS011;904;47.814;11.134;2023-01-23T00:47:25;20.10;;;12.23;;
1811;SDS011;904;47.814;11.134;2023-01-23T00:49:53;23.65;;;11.80;;
1811;SDS011;904;47.814;11.134;2023-01-23T00:52:22;23.38;;;11.80;;
1811;SDS011;904;47.814;11.134;2023-01-23T00:54:50;19.27;;;13.00;;
1811;SDS011;904;47.814;11.134;2023-01-23T00:57:17;18.17;;;10.57;;
1811;SDS011;904;47.814;11.134;2023-01-23T00:59:45;18.95;;;12.05;;
1811;SDS011;904;47.814;11.134;2023-01-23T01:02:14;20.85;;;12.48;;
1811;SDS011;904;47.814;11.134;2023-01-23T01:04:42;23.15;;;12.35;;
1811;SDS011;904;47.814;11.134;2023-01-23T01:07:09;19.25;;;11.73;;
1811;SDS011;904;47.814;11.134;2023-01-23T01:09:37;28.13;;;12.00;;
1811;SDS011;904;47.814;11.134;2023-01-23T01:12:05;23.65;;;13.27;;
1811;SDS011;904;47.814;11.134;2023-01-23T01:14:33;20.17;;;12.10;;
1811;SDS011;904;47.814;11.134;2023-01-23T01:17:01;26.75;;;12.63;;
1811;SDS011;904;47.814;11.134;2023-01-23T01:19:30;24.60;;;12.50;;
1811;SDS011;904;47.814;11.134;2023-01-23T01:21:58;20.30;;;12.65;;
1811;SDS011;904;47.814;11.134;2023-01-23T01:24:25;24.38;;;11.30;;
1811;SDS011;904;47.814;11.134;2023-01-23T01:26:53;21.85;;;12.60;;
1811;SDS011;904;47.814;11.134;2023-01-23T01:29:21;26.98;;;13.00;;
1811;SDS011;904;47.814;11.134;2023-01-23T01:31:48;22.58;;;13.00;;
1811;SDS011;904;47.814;11.134;2023-01-23T01:34:16;21.50;;;13.35;;
1811;SDS011;904;47.814;11.134;2023-01-23T01:36:45;27.98;;;12.63;;
1811;SDS011;904;47.814;11.134;2023-01-23T01:39:13;23.35;;;11.77;;
1811;SDS011;904;47.814;11.134;2023-01-23T01:41:40;28.05;;;13.50;;
1811;SDS011;904;47.814;11.134;2023-01-23T01:44:09;17.42;;;12.13;;
1811;SDS011;904;47.814;11.134;2023-01-23T01:46:39;22.10;;;11.57;;
1811;SDS011;904;47.814;11.134;2023-01-23T01:49:08;20.92;;;11.13;;
1811;SDS011;904;47.814;11.134;2023-01-23T01:51:38;22.77;;;12.77;;
1811;SDS011;904;47.814;11.134;2023-01-23T01:54:10;20.98;;;12.15;;
1811;SDS011;904;47.814;11.134;2023-01-23T01:56:42;25.38;;;12.50;;
1811;SDS011;904;47.814;11.134;2023-01-23T01:59:10;20.60;;;11.93;;
1811;SDS011;904;47.814;11.134;2023-01-23T02:01:39;23.20;;;12.60;;
1811;SDS011;904;47.814;11.134;2023-01-23T02:04:08;19.63;;;12.75;;
1811;SDS011;904;47.814;11.134;2023-01-23T02:06:36;18.02;;;10.63;;
1811;SDS011;904;47.814;11.134;2023-01-23T02:09:04;25.42;;;12.20;;
1811;SDS011;904;47.814;11.134;2023-01-23T02:11:36;21.80;;;12.25;;
1811;SDS011;904;47.814;11.134;2023-01-23T02:14:04;22.40;;;12.07;;
1811;SDS011;904;47.814;11.134;2023-01-23T02:16:33;23.38;;;12.18;;
1811;SDS011;904;47.814;11.134;2023-01-23T02:19:07;21.35;;;12.20;;
1811;SDS011;904;47.814;11.134;2023-01-23T02:21:38;20.80;;;11.52;;
1811;SDS011;904;47.814;11.134;2023-01-23T02:24:11;21.90;;;13.00;;
1811;SDS011;904;47.814;11.134;2023-01-23T02:26:42;22.67;;;11.65;;
1811;SDS011;904;47.814;11.134;2023-01-23T02:29:10;22.90;;;12.75;;
1811;SDS011;904;47.814;11.134;2023-01-23T02:31:38;27.88;;;14.35;;
1811;SDS011;904;47.814;11.134;2023-01-23T02:34:08;24.05;;;12.65;;
1811;SDS011;904;47.814;11.134;2023-01-23T02:36:36;21.95;;;11.95;;
1811;SDS011;904;47.814;11.134;2023-01-23T02:39:06;23.85;;;11.90;;
1811;SDS011;904;47.814;11.134;2023-01-23T02:41:34;20.33;;;12.60;;
1811;SDS011;904;47.814;11.134;2023-01-23T02:44:05;22.23;;;12.75;;
1811;SDS011;904;47.814;11.134;2023-01-23T02:46:34;27.00;;;13.98;;
1811;SDS011;904;47.814;11.134;2023-01-23T02:49:02;26.27;;;13.75;;
1811;SDS011;904;47.814;11.134;2023-01-23T02:51:30;26.30;;;14.40;;
1811;SDS011;904;47.814;11.134;2023-01-23T02:53:57;24.30;;;13.90;;
1811;SDS011;904;47.814;11.134;2023-01-23T02:56:25;25.00;;;14.45;;
1811;SDS011;904;47.814;11.134;2023-01-23T02:58:53;18.77;;;12.02;;
1811;SDS011;904;47.814;11.134;2023-01-23T03:01:39;22.63;;;13.63;;
1811;SDS011;904;47.814;11.134;2023-01-23T03:04:07;21.92;;;12.73;;
1811;SDS011;904;47.814;11.134;2023-01-23T03:06:35;24.55;;;12.80;;
1811;SDS011;904;47.814;11.134;2023-01-23T03:09:04;27.27;;;13.65;;
1811;SDS011;904;47.814;11.134;2023-01-23T03:11:34;27.20;;;13.05;;
1811;SDS011;904;47.814;11.134;2023-01-23T03:14:02;25.02;;;14.13;;
1811;SDS011;904;47.814;11.134;2023-01-23T03:16:30;27.00;;;14.07;;
1811;SDS011;904;47.814;11.134;2023-01-23T03:19:00;25.67;;;15.85;;
1811;SDS011;904;47.814;11.134;2023-01-23T03:21:30;30.10;;;13.93;;
1811;SDS011;904;47.814;11.134;2023-01-23T03:23:58;30.25;;;15.82;;
1811;SDS011;904;47.814;11.134;2023-01-23T03:26:25;26.90;;;14.90;;
1811;SDS011;904;47.814;11.134;2023-01-23T03:28:54;26.85;;;15.88;;
1811;SDS011;904;47.814;11.134;2023-01-23T03:31:39;23.17;;;14.23;;
1811;SDS011;904;47.814;11.134;2023-01-23T03:34:08;30.27;;;13.60;;
1811;SDS011;904;47.814;11.134;2023-01-23T03:36:36;25.30;;;13.70;;
1811;SDS011;904;47.814;11.134;2023-01-23T03:39:04;23.48;;;13.50;;
1811;SDS011;904;47.814;11.134;2023-01-23T03:41:49;26.00;;;13.63;;
1811;SDS011;904;47.814;11.134;2023-01-23T03:44:17;24.02;;;13.98;;
1811;SDS011;904;47.814;11.134;2023-01-23T03:46:45;26.45;;;14.10;;
1811;SDS011;904;47.814;11.134;2023-01-23T03:49:14;25.77;;;15.18;;
1811;SDS011;904;47.814;11.134;2023-01-23T03:51:42;25.60;;;13.23;;
1811;SDS011;904;47.814;11.134;2023-01-23T03:54:09;26.75;;;13.40;;
1811;SDS011;904;47.814;11.134;2023-01-23T03:56:38;21.40;;;13.40;;
1811;SDS011;904;47.814;11.134;2023-01-23T03:59:06;19.20;;;12.52;;
1811;SDS011;904;47.814;11.134;2023-01-23T04:01:34;23.98;;;13.65;;
1811;SDS011;904;47.814;11.134;2023-01-23T04:04:02;22.08;;;12.02;;
1811;SDS011;904;47.814;11.134;2023-01-23T04:06:31;23.27;;;13.90;;
1811;SDS011;904;47.814;11.134;2023-01-23T04:08:59;26.17;;;14.43;;
1811;SDS011;904;47.814;11.134;2023-01-23T04:11:27;21.98;;;12.80;;
1811;SDS011;904;47.814;11.134;2023-01-23T04:13:54;18.08;;;11.55;;
1811;SDS011;904;47.814;11.134;2023-01-23T04:16:22;25.63;;;14.48;;
1811;SDS011;904;47.814;11.134;2023-01-23T04:18:51;21.30;;;11.90;;
1811;SDS011;904;47.814;11.134;2023-01-23T04:21:20;21.75;;;12.85;;
1811;SDS011;904;47.814;11.134;2023-01-23T04:23:49;23.80;;;13.82;;
1811;SDS011;904;47.814;11.134;2023-01-23T04:26:17;22.50;;;12.57;;
1811;SDS011;904;47.814;11.134;2023-01-23T04:28:45;24.15;;;13.05;;
1811;SDS011;904;47.814;11.134;2023-01-23T04:31:12;22.52;;;12.80;;
1811;SDS011;904;47.814;11.134;2023-01-23T04:33:40;27.80;;;15.30;;
1811;SDS011;904;47.814;11.134;2023-01-23T04:36:07;22.58;;;13.63;;
1811;SDS011;904;47.814;11.134;2023-01-23T04:38:36;25.17;;;14.23;;
1811;SDS011;904;47.814;11.134;2023-01-23T04:41:05;22.42;;;12.00;;
1811;SDS011;904;47.814;11.134;2023-01-23T04:43:33;27.92;;;13.73;;
1811;SDS011;904;47.814;11.134;2023-01-23T04:46:01;21.38;;;12.70;;
1811;SDS011;904;47.814;11.134;2023-01-23T04:48:28;21.83;;;13.70;;
1811;SDS011;904;47.814;11.134;2023-01-23T04:50:56;22.05;;;12.77;;
1811;SDS011;904;47.814;11.134;2023-01-23T04:53:23;24.17;;;15.23;;
1811;SDS011;904;47.814;11.134;2023-01-23T04:55:51;27.70;;;13.73;;
1811;SDS011;904;47.814;11.134;2023-01-23T04:58:20;22.90;;;13.13;;
1811;SDS011;904;47.814;11.134;2023-01-23T05:00:47;23.90;;;14.02;;
1811;SDS011;904;47.814;11.134;2023-01-23T05:03:15;22.55;;;13.35;;
1811;SDS011;904;47.814;11.134;2023-01-23T05:05:43;22.85;;;14.13;;
1811;SDS011;904;47.814;11.134;2023-01-23T05:08:11;25.95;;;13.50;;
1811;SDS011;904;47.814;11.134;2023-01-23T05:10:38;28.30;;;14.60;;
1811;SDS011;904;47.814;11.134;2023-01-23T05:13:06;24.70;;;13.82;;
1811;SDS011;904;47.814;11.134;2023-01-23T05:15:36;24.42;;;14.02;;
1811;SDS011;904;47.814;11.134;2023-01-23T05:18:04;25.90;;;13.73;;
1811;SDS011;904;47.814;11.134;2023-01-23T05:20:31;24.27;;;14.25;;
1811;SDS011;904;47.814;11.134;2023-01-23T05:22:59;24.77;;;13.48;;
1811;SDS011;904;47.814;11.134;2023-01-23T05:25:27;25.02;;;15.15;;
1811;SDS011;904;47.814;11.134;2023-01-23T05:27:55;29.55;;;15.02;;
1811;SDS011;904;47.814;11.134;2023-01-23T05:30:22;25.98;;;15.50;;
1811;SDS011;904;47.814;11.134;2023-01-23T05:32:52;29.65;;;17.75;;
1811;SDS011;904;47.814;11.134;2023-01-23T05:35:20;23.30;;;14.38;;
1811;SDS011;904;47.814;11.134;2023-01-23T05:37:48;23.95;;;13.43;;
1811;SDS011;904;47.814;11.134;2023-01-23T05:40:16;26.60;;;13.82;;
1811;SDS011;904;47.814;11.134;2023-01-23T05:42:44;30.98;;;15.32;;
1811;SDS011;904;47.814;11.134;2023-01-23T05:45:12;29.10;;;15.10;;
1811;SDS011;904;47.814;11.134;2023-01-23T05:47:40;24.75;;;14.10;;
1811;SDS011;904;47.814;11.134;2023-01-23T05:50:11;24.77;;;14.65;;
1811;SDS011;904;47.814;11.134;2023-01-23T05:52:40;28.67;;;15.18;;
1811;SDS011;904;47.814;11.134;2023-01-23T05:55:08;25.77;;;16.90;;
1811;SDS011;904;47.814;11.134;2023-01-23T05:57:36;26.33;;;15.73;;
1811;SDS011;904;47.814;11.134;2023-01-23T06:00:04;30.45;;;16.70;;
1811;SDS011;904;47.814;11.134;2023-01-23T06:02:33;32.75;;;17.73;;
1811;SDS011;904;47.814;11.134;2023-01-23T06:05:00;27.80;;;15.13;;
1811;SDS011;904;47.814;11.134;2023-01-23T06:07:29;28.30;;;15.75;;
1811;SDS011;904;47.814;11.134;2023-01-23T06:09:57;26.27;;;14.27;;
1811;SDS011;904;47.814;11.134;2023-01-23T06:12:25;28.83;;;15.93;;
1811;SDS011;904;47.814;11.134;2023-01-23T06:14:53;23.35;;;14.57;;
1811;SDS011;904;47.814;11.134;2023-01-23T06:17:21;28.98;;;13.93;;
1811;SDS011;904;47.814;11.134;2023-01-23T06:19:48;26.30;;;14.85;;
1811;SDS011;904;47.814;11.134;2023-01-23T06:22:16;26.02;;;15.50;;
1811;SDS011;904;47.814;11.134;2023-01-23T06:24:45;32.35;;;18.10;;
1811;SDS011;904;47.814;11.134;2023-01-23T06:27:13;29.90;;;18.80;;
1811;SDS011;904;47.814;11.134;2023-01-23T06:29:41;31.58;;;16.90;;
1811;SDS011;904;47.814;11.134;2023-01-23T06:32:09;25.33;;;15.40;;
1811;SDS011;904;47.814;11.134;2023-01-23T06:34:37;28.83;;;15.02;;
1811;SDS011;904;47.814;11.134;2023-01-23T06:37:04;29.35;;;15.15;;
1811;SDS011;904;47.814;11.134;2023-01-23T06:39:32;25.63;;;14.85;;
1811;SDS011;904;47.814;11.134;2023-01-23T06:42:01;28.02;;;16.08;;
1811;SDS011;904;47.814;11.134;2023-01-23T06:44:33;28.35;;;15.75;;
1811;SDS011;904;47.814;11.134;2023-01-23T06:47:01;24.88;;;14.32;;
1811;SDS011;904;47.814;11.134;2023-01-23T06:49:28;27.88;;;15.23;;
1811;SDS011;904;47.814;11.134;2023-01-23T06:51:57;26.70;;;14.60;;
1811;SDS011;904;47.814;11.134;2023-01-23T06:54:24;30.52;;;16.92;;
1811;SDS011;904;47.814;11.134;2023-01-23T06:56:52;27.65;;;16.23;;
1811;SDS011;904;47.814;11.134;2023-01-23T06:59:21;30.55;;;16.67;;
1811;SDS011;904;47.814;11.134;2023-01-23T07:01:50;30.00;;;16.23;;
1811;SDS011;904;47.814;11.134;2023-01-23T07:04:18;30.95;;;19.23;;
1811;SDS011;904;47.814;11.134;2023-01-23T07:06:45;28.65;;;16.45;;
1811;SDS011;904;47.814;11.134;2023-01-23T07:09:13;24.80;;;14.95;;
1811;SDS011;904;47.814;11.134;2023-01-23T07:11:40;26.02;;;13.50;;
1811;SDS011;904;47.814;11.134;2023-01-23T07:14:07;26.00;;;15.80;;
1811;SDS011;904;47.814;11.134;2023-01-23T07:16:36;28.63;;;16.60;;
1811;SDS011;904;47.814;11.134;2023-01-23T07:19:03;26.55;;;14.35;;
1811;SDS011;904;47.814;11.134;2023-01-23T07:21:30;27.55;;;15.15;;
1811;SDS011;904;47.814;11.134;2023-01-23T07:23:58;27.60;;;15.13;;
1811;SDS011;904;47.814;11.134;2023-01-23T07:26:25;26.20;;;16.58;;
1811;SDS011;904;47.814;11.134;2023-01-23T07:28:52;30.25;;;17.83;;
1811;SDS011;904;47.814;11.134;2023-01-23T07:31:20;26.05;;;15.07;;
1811;SDS011;904;47.814;11.134;2023-01-23T07:33:48;30.45;;;15.85;;
1811;SDS011;904;47.814;11.134;2023-01-23T07:36:16;26.42;;;16.40;;
1811;SDS011;904;47.814;11.134;2023-01-23T07:38:44;32.97;;;17.48;;
1811;SDS011;904;47.814;11.134;2023-01-23T07:41:11;28.75;;;15.48;;
1811;SDS011;904;47.814;11.134;2023-01-23T07:43:38;28.83;;;17.55;;
1811;SDS011;904;47.814;11.134;2023-01-23T07:46:05;30.38;;;16.45;;
1811;SDS011;904;47.814;11.134;2023-01-23T07:48:34;23.63;;;14.93;;
1811;SDS011;904;47.814;11.134;2023-01-23T07:51:03;22.55;;;13.25;;
1811;SDS011;904;47.814;11.134;2023-01-23T07:53:33;23.58;;;14.63;;
1811;SDS011;904;47.814;11.134;2023-01-23T07:56:02;32.58;;;17.15;;
1811;SDS011;904;47.814;11.134;2023-01-23T07:58:30;22.75;;;15.07;;
1811;SDS011;904;47.814;11.134;2023-01-23T08:00:57;26.50;;;17.10;;
1811;SDS011;904;47.814;11.134;2023-01-23T08:03:25;29.20;;;16.95;;
1811;SDS011;904;47.814;11.134;2023-01-23T08:05:54;25.23;;;15.88;;
1811;SDS011;904;47.814;11.134;2023-01-23T08:08:22;29.17;;;17.30;;
1811;SDS011;904;47.814;11.134;2023-01-23T08:10:49;29.27;;;17.70;;
1811;SDS011;904;47.814;11.134;2023-01-23T08:13:16;25.33;;;16.27;;
1811;SDS011;904;47.814;11.134;2023-01-23T08:15:44;42.05;;;22.88;;
1811;SDS011;904;47.814;11.134;2023-01-23T08:18:11;38.53;;;20.33;;
1811;SDS011;904;47.814;11.134;2023-01-23T08:20:38;38.50;;;20.95;;
1811;SDS011;904;47.814;11.134;2023-01-23T08:23:06;27.90;;;16.45;;
1811;SDS011;904;47.814;11.134;2023-01-23T08:25:34;34.60;;;18.75;;
1811;SDS011;904;47.814;11.134;2023-01-23T08:28:03;31.65;;;17.83;;
1811;SDS011;904;47.814;11.134;2023-01-23T08:30:31;31.58;;;18.08;;
1811;SDS011;904;47.814;11.134;2023-01-23T08:32:58;26.85;;;16.33;;
1811;SDS011;904;47.814;11.134;2023-01-23T08:35:28;27.95;;;17.58;;
1811;SDS011;904;47.814;11.134;2023-01-23T08:37:55;37.28;;;19.25;;
1811;SDS011;904;47.814;11.134;2023-01-23T08:40:23;32.42;;;19.33;;
1811;SDS011;904;47.814;11.134;2023-01-23T08:42:51;25.42;;;16.02;;
1811;SDS011;904;47.814;11.134;2023-01-23T08:45:19;30.25;;;16.95;;
1811;SDS011;904;47.814;11.134;2023-01-23T08:47:46;29.63;;;14.82;;
1811;SDS011;904;47.814;11.134;2023-01-23T08:50:13;24.85;;;14.20;;
1811;SDS011;904;47.814;11.134;2023-01-23T08:52:40;28.10;;;17.17;;
1811;SDS011;904;47.814;11.134;2023-01-23T08:55:08;28.30;;;16.27;;
1811;SDS011;904;47.814;11.134;2023-01-23T08:57:36;33.65;;;16.73;;
1811;SDS011;904;47.814;11.134;2023-01-23T09:00:06;31.55;;;17.25;;
1811;SDS011;904;47.814;11.134;2023-01-23T09:02:34;32.97;;;16.42;;
1811;SDS011;904;47.814;11.134;2023-01-23T09:05:01;32.50;;;17.80;;
1811;SDS011;904;47.814;11.134;2023-01-23T09:07:29;29.40;;;17.23;;
1811;SDS011;904;47.814;11.134;2023-01-23T09:09:56;32.83;;;19.15;;
1811;SDS011;904;47.814;11.134;2023-01-23T09:12:23;32.80;;;17.23;;
1811;SDS011;904;47.814;11.134;2023-01-23T09:14:50;30.45;;;17.27;;
1811;SDS011;904;47.814;11.134;2023-01-23T09:17:20;36.00;;;19.10;;
1811;SDS011;904;47.814;11.134;2023-01-23T09:19:48;32.08;;;18.13;;
1811;SDS011;904;47.814;11.134;2023-01-23T09:22:15;32.85;;;18.40;;
1811;SDS011;904;47.814;11.134;2023-01-23T09:24:42;37.53;;;23.13;;
1811;SDS011;904;47.814;11.134;2023-01-23T09:27:09;32.53;;;19.58;;
1811;SDS011;904;47.814;11.134;2023-01-23T09:29:36;34.47;;;20.45;;
1811;SDS011;904;47.814;11.134;2023-01-23T09:32:04;31.50;;;18.15;;
1811;SDS011;904;47.814;11.134;2023-01-23T09:34:32;38.70;;;20.08;;
1811;SDS011;904;47.814;11.134;2023-01-23T09:37:00;35.25;;;20.25;;
1811;SDS011;904;47.814;11.134;2023-01-23T09:39:28;37.13;;;20.60;;
1811;SDS011;904;47.814;11.134;2023-01-23T09:41:55;34.67;;;20.92;;
1811;SDS011;904;47.814;11.134;2023-01-23T09:44:24;37.75;;;19.45;;
1811;SDS011;904;47.814;11.134;2023-01-23T09:46:55;40.22;;;20.98;;
1811;SDS011;904;47.814;11.134;2023-01-23T09:49:27;38.80;;;20.33;;
1811;SDS011;904;47.814;11.134;2023-01-23T09:51:59;37.00;;;20.50;;
1811;SDS011;904;47.814;11.134;2023-01-23T09:54:30;33.20;;;19.02;;
1811;SDS011;904;47.814;11.134;2023-01-23T09:56:59;42.10;;;21.15;;
1811;SDS011;904;47.814;11.134;2023-01-23T09:59:28;38.08;;;18.80;;
1811;SDS011;904;47.814;11.134;2023-01-23T10:01:59;38.28;;;18.92;;
1811;SDS011;904;47.814;11.134;2023-01-23T10:04:26;41.30;;;19.65;;
1811;SDS011;904;47.814;11.134;2023-01-23T10:09:41;36.40;;;19.38;;
1811;SDS011;904;47.814;11.134;2023-01-23T10:12:13;39.72;;;20.55;;
1811;SDS011;904;47.814;11.134;2023-01-23T10:14:46;45.05;;;19.65;;
1811;SDS011;904;47.814;11.134;2023-01-23T10:17:18;37.85;;;19.50;;
1811;SDS011;904;47.814;11.134;2023-01-23T10:19:52;36.60;;;19.77;;
1811;SDS011;904;47.814;11.134;2023-01-23T10:22:29;41.63;;;21.67;;
1811;SDS011;904;47.814;11.134;2023-01-23T10:25:01;40.10;;;20.05;;
1811;SDS011;904;47.814;11.134;2023-01-23T10:27:30;33.22;;;17.70;;
1811;SDS011;904;47.814;11.134;2023-01-23T10:29:59;33.88;;;18.50;;
1811;SDS011;904;47.814;11.134;2023-01-23T10:32:29;38.20;;;18.65;;
1811;SDS011;904;47.814;11.134;2023-01-23T10:34:57;31.42;;;16.92;;
1811;SDS011;904;47.814;11.134;2023-01-23T10:37:34;37.00;;;18.17;;
1811;SDS011;904;47.814;11.134;2023-01-23T10:40:06;31.00;;;16.95;;
1811;SDS011;904;47.814;11.134;2023-01-23T10:42:33;39.83;;;19.60;;
1811;SDS011;904;47.814;11.134;2023-01-23T10:45:00;35.15;;;17.73;;
1811;SDS011;904;47.814;11.134;2023-01-23T10:47:29;34.78;;;19.10;;
1811;SDS011;904;47.814;11.134;2023-01-23T10:49:57;32.60;;;18.42;;
1811;SDS011;904;47.814;11.134;2023-01-23T10:52:28;36.85;;;17.65;;
1811;SDS011;904;47.814;11.134;2023-01-23T10:54:55;31.58;;;16.20;;
1811;SDS011;904;47.814;11.134;2023-01-23T10:57:24;27.95;;;17.45;;
1811;SDS011;904;47.814;11.134;2023-01-23T10:59:53;30.35;;;16.98;;
1811;SDS011;904;47.814;11.134;2023-01-23T11:02:25;28.42;;;17.52;;
1811;SDS011;904;47.814;11.134;2023-01-23T11:04:52;34.65;;;18.20;;
1811;SDS011;904;47.814;11.134;2023-01-23T11:07:20;34.40;;;17.63;;
1811;SDS011;904;47.814;11.134;2023-01-23T11:09:51;33.63;;;17.42;;
1811;SDS011;904;47.814;11.134;2023-01-23T11:12:20;33.58;;;17.15;;
1811;SDS011;904;47.814;11.134;2023-01-23T11:14:49;34.55;;;18.33;;
1811;SDS011;904;47.814;11.134;2023-01-23T11:17:18;33.63;;;18.08;;
1811;SDS011;904;47.814;11.134;2023-01-23T11:19:46;30.00;;;16.50;;
1811;SDS011;904;47.814;11.134;2023-01-23T11:25:17;34.72;;;18.27;;
1811;SDS011;904;47.814;11.134;2023-01-23T11:27:55;31.63;;;16.90;;
1811;SDS011;904;47.814;11.134;2023-01-23T11:30:30;31.27;;;17.08;;
1811;SDS011;904;47.814;11.134;2023-01-23T11:33:00;29.40;;;16.25;;
1811;SDS011;904;47.814;11.134;2023-01-23T11:35:38;37.53;;;20.30;;
1811;SDS011;904;47.814;11.134;2023-01-23T11:38:09;34.78;;;19.38;;
1811;SDS011;904;47.814;11.134;2023-01-23T11:40:38;33.28;;;19.77;;
1811;SDS011;904;47.814;11.134;2023-01-23T11:43:11;32.50;;;16.52;;
1811;SDS011;904;47.814;11.134;2023-01-23T11:45:45;42.63;;;20.67;;
1811;SDS011;904;47.814;11.134;2023-01-23T11:48:21;31.13;;;18.75;;
1811;SDS011;904;47.814;11.134;2023-01-23T11:50:50;30.65;;;17.17;;
1811;SDS011;904;47.814;11.134;2023-01-23T11:53:26;33.65;;;17.60;;
1811;SDS011;904;47.814;11.134;2023-01-23T11:56:02;34.53;;;17.13;;
1811;SDS011;904;47.814;11.134;2023-01-23T11:58:39;39.25;;;20.17;;
1811;SDS011;904;47.814;11.134;2023-01-23T12:01:14;32.92;;;17.55;;
1811;SDS011;904;47.814;11.134;2023-01-23T12:03:56;38.97;;;19.17;;
1811;SDS011;904;47.814;11.134;2023-01-23T12:06:36;35.05;;;17.58;;
1811;SDS011;904;47.814;11.134;2023-01-23T12:09:06;31.48;;;15.90;;
1811;SDS011;904;47.814;11.134;2023-01-23T12:11:38;34.47;;;17.08;;
1811;SDS011;904;47.814;11.134;2023-01-23T12:14:10;35.92;;;20.48;;
1811;SDS011;904;47.814;11.134;2023-01-23T12:16:47;36.22;;;20.10;;
1811;SDS011;904;47.814;11.134;2023-01-23T12:19:21;36.80;;;18.40;;
1811;SDS011;904;47.814;11.134;2023-01-23T12:21:54;32.00;;;17.73;;
1811;SDS011;904;47.814;11.134;2023-01-23T12:24:27;31.75;;;16.17;;
1811;SDS011;904;47.814;11.134;2023-01-23T12:26:59;34.47;;;17.92;;
1811;SDS011;904;47.814;11.134;2023-01-23T12:29:58;40.47;;;17.85;;
1811;SDS011;904;47.814;11.134;2023-01-23T12:32:34;32.45;;;17.08;;
1811;SDS011;904;47.814;11.134;2023-01-23T12:35:09;42.78;;;20.60;;
1811;SDS011;904;47.814;11.134;2023-01-23T12:37:45;35.55;;;17.63;;
1811;SDS011;904;47.814;11.134;2023-01-23T12:40:17;33.85;;;17.95;;
1811;SDS011;904;47.814;11.134;2023-01-23T12:42:49;34.90;;;19.55;;
1811;SDS011;904;47.814;11.134;2023-01-23T12:45:20;44.35;;;19.85;;
1811;SDS011;904;47.814;11.134;2023-01-23T12:47:51;32.88;;;17.75;;
1811;SDS011;904;47.814;11.134;2023-01-23T12:50:20;34.20;;;18.85;;
1811;SDS011;904;47.814;11.134;2023-01-23T12:52:49;38.53;;;20.02;;
1811;SDS011;904;47.814;11.134;2023-01-23T12:55:18;35.10;;;19.10;;
1811;SDS011;904;47.814;11.134;2023-01-23T12:57:46;34.05;;;18.30;;
1811;SDS011;904;47.814;11.134;2023-01-23T13:05:52;32.58;;;17.08;;
1811;SDS011;904;47.814;11.134;2023-01-23T13:08:23;30.48;;;16.45;;
1811;SDS011;904;47.814;11.134;2023-01-23T13:10:55;31.02;;;16.80;;
1811;SDS011;904;47.814;11.134;2023-01-23T13:13:43;30.20;;;15.90;;
1811;SDS011;904;47.814;11.134;2023-01-23T13:16:11;33.30;;;16.15;;
1811;SDS011;904;47.814;11.134;2023-01-23T13:18:40;28.75;;;16.85;;
1811;SDS011;904;47.814;11.134;2023-01-23T13:21:36;30.90;;;16.60;;
1811;SDS011;904;47.814;11.134;2023-01-23T13:24:23;30.65;;;16.73;;
1811;SDS011;904;47.814;11.134;2023-01-23T13:29:55;39.28;;;19.25;;
1811;SDS011;904;47.814;11.134;2023-01-23T13:32:26;38.38;;;17.90;;
1811;SDS011;904;47.814;11.134;2023-01-23T13:34:54;25.55;;;14.52;;
1811;SDS011;904;47.814;11.134;2023-01-23T13:40:17;33.70;;;19.77;;
1811;SDS011;904;47.814;11.134;2023-01-23T13:42:45;27.48;;;16.55;;
1811;SDS011;904;47.814;11.134;2023-01-23T13:45:19;32.70;;;16.40;;
1811;SDS011;904;47.814;11.134;2023-01-23T13:47:49;33.55;;;18.35;;
1811;SDS011;904;47.814;11.134;2023-01-23T13:50:38;37.60;;;16.70;;
1811;SDS011;904;47.814;11.134;2023-01-23T13:53:10;33.22;;;16.48;;
1811;SDS011;904;47.814;11.134;2023-01-23T13:55:58;29.13;;;15.75;;
1811;SDS011;904;47.814;11.134;2023-01-23T13:58:43;36.67;;;17.95;;
1811;SDS011;904;47.814;11.134;2023-01-23T14:01:12;33.20;;;16.63;;
1811;SDS011;904;47.814;11.134;2023-01-23T14:03:58;33.25;;;18.45;;
1811;SDS011;904;47.814;11.134;2023-01-23T14:06:44;33.97;;;17.05;;
1811;SDS011;904;47.814;11.134;2023-01-23T14:09:18;35.30;;;18.35;;
1811;SDS011;904;47.814;11.134;2023-01-23T14:11:48;32.30;;;17.92;;
1811;SDS011;904;47.814;11.134;2023-01-23T14:14:22;33.20;;;17.52;;
1811;SDS011;904;47.814;11.134;2023-01-23T14:17:06;46.03;;;18.33;;
1811;SDS011;904;47.814;11.134;2023-01-23T14:19:34;34.75;;;17.10;;
1811;SDS011;904;47.814;11.134;2023-01-23T14:22:05;38.20;;;18.02;;
1811;SDS011;904;47.814;11.134;2023-01-23T14:24:39;39.05;;;18.25;;
1811;SDS011;904;47.814;11.134;2023-01-23T14:27:16;43.35;;;24.35;;
1811;SDS011;904;47.814;11.134;2023-01-23T14:29:54;46.50;;;24.65;;
1811;SDS011;904;47.814;11.134;2023-01-23T14:32:21;33.20;;;19.25;;
1811;SDS011;904;47.814;11.134;2023-01-23T14:34:49;38.97;;;22.35;;
1811;SDS011;904;47.814;11.134;2023-01-23T14:37:16;40.20;;;22.25;;
1811;SDS011;904;47.814;11.134;2023-01-23T14:39:43;35.78;;;20.40;;
1811;SDS011;904;47.814;11.134;2023-01-23T14:42:15;36.30;;;19.58;;
1811;SDS011;904;47.814;11.134;2023-01-23T14:44:46;32.28;;;19.02;;
1811;SDS011;904;47.814;11.134;2023-01-23T14:47:14;31.48;;;18.92;;
1811;SDS011;904;47.814;11.134;2023-01-23T14:49:42;33.33;;;18.10;;
1811;SDS011;904;47.814;11.134;2023-01-23T14:52:21;39.22;;;20.33;;
1811;SDS011;904;47.814;11.134;2023-01-23T14:54:49;37.13;;;20.90;;
1811;SDS011;904;47.814;11.134;2023-01-23T14:57:18;37.15;;;19.05;;
1811;SDS011;904;47.814;11.134;2023-01-23T14:59:46;38.88;;;19.83;;
1811;SDS011;904;47.814;11.134;2023-01-23T15:02:24;40.08;;;19.85;;
1811;SDS011;904;47.814;11.134;2023-01-23T15:05:07;41.97;;;19.65;;
1811;SDS011;904;47.814;11.134;2023-01-23T15:07:40;37.00;;;18.60;;
1811;SDS011;904;47.814;11.134;2023-01-23T15:10:11;38.63;;;19.63;;
1811;SDS011;904;47.814;11.134;2023-01-23T15:12:40;49.83;;;22.13;;
1811;SDS011;904;47.814;11.134;2023-01-23T15:15:13;37.85;;;20.42;;
1811;SDS011;904;47.814;11.134;2023-01-23T15:17:43;42.63;;;20.50;;
1811;SDS011;904;47.814;11.134;2023-01-23T15:22:53;46.03;;;21.50;;